sensor_id;sensor_type;location;lat;lon;timestamp;temperature;humidity
3067;DHT22;1544;48.834;9.194;2023-07-13T00:00:56;21.80;33.60
3067;DHT22;1544;48.834;9.194;2023-07-13T00:03:32;21.70;33.60
3067;DHT22;1544;48.834;9.194;2023-07-13T00:06:10;21.70;33.50
3067;DHT22;1544;48.834;9.194;2023-07-13T00:08:47;21.60;33.50
3067;DHT22;1544;48.834;9.194;2023-07-13T00:11:24;21.60;33.50
3067;DHT22;1544;48.834;9.194;2023-07-13T00:14:00;21.50;33.40
3067;DHT22;1544;48.834;9.194;2023-07-13T00:16:38;21.40;33.40
3067;DHT22;1544;48.834;9.194;2023-07-13T00:19:15;21.30;33.40
3067;DHT22;1544;48.834;9.194;2023-07-13T00:21:52;21.30;33.50
3067;DHT22;1544;48.834;9.194;2023-07-13T00:24:31;21.20;33.50
3067;DHT22;1544;48.834;9.194;2023-07-13T00:27:08;21.20;33.40
3067;DHT22;1544;48.834;9.194;2023-07-13T00:29:45;21.10;33.40
3067;DHT22;1544;48.834;9.194;2023-07-13T00:32:21;21.00;33.40
3067;DHT22;1544;48.834;9.194;2023-07-13T00:34:57;21.70;34.10
3067;DHT22;1544;48.834;9.194;2023-07-13T00:37:33;20.90;33.40
3067;DHT22;1544;48.834;9.194;2023-07-13T00:40:13;20.90;33.60
3067;DHT22;1544;48.834;9.194;2023-07-13T00:42:52;20.90;33.60
3067;DHT22;1544;48.834;9.194;2023-07-13T00:48:05;20.80;33.70
3067;DHT22;1544;48.834;9.194;2023-07-13T00:50:43;20.70;33.70
3067;DHT22;1544;48.834;9.194;2023-07-13T00:53:20;20.70;33.80
3067;DHT22;1544;48.834;9.194;2023-07-13T00:55:57;20.70;33.60
3067;DHT22;1544;48.834;9.194;2023-07-13T00:58:33;20.60;33.60
3067;DHT22;1544;48.834;9.194;2023-07-13T01:01:12;20.60;33.50
3067;DHT22;1544;48.834;9.194;2023-07-13T01:03:49;20.60;33.60
3067;DHT22;1544;48.834;9.194;2023-07-13T01:06:25;20.60;33.60
3067;DHT22;1544;48.834;9.194;2023-07-13T01:09:02;20.50;33.60
3067;DHT22;1544;48.834;9.194;2023-07-13T01:11:40;19.40;32.40
3067;DHT22;1544;48.834;9.194;2023-07-13T01:14:16;20.50;33.30
3067;DHT22;1544;48.834;9.194;2023-07-13T01:16:53;20.40;33.40
3067;DHT22;1544;48.834;9.194;2023-07-13T01:19:42;20.40;33.50
3067;DHT22;1544;48.834;9.194;2023-07-13T01:22:20;20.30;33.40
3067;DHT22;1544;48.834;9.194;2023-07-13T01:25:02;20.30;33.40
3067;DHT22;1544;48.834;9.194;2023-07-13T01:27:38;20.30;33.40
3067;DHT22;1544;48.834;9.194;2023-07-13T01:30:17;20.30;33.50
3067;DHT22;1544;48.834;9.194;2023-07-13T01:32:53;20.30;33.60
3067;DHT22;1544;48.834;9.194;2023-07-13T01:35:29;20.30;33.60
3067;DHT22;1544;48.834;9.194;2023-07-13T01:38:06;20.20;33.80
3067;DHT22;1544;48.834;9.194;2023-07-13T01:40:43;20.10;33.60
3067;DHT22;1544;48.834;9.194;2023-07-13T01:43:19;20.10;33.60
3067;DHT22;1544;48.834;9.194;2023-07-13T01:45:56;20.10;33.80
3067;DHT22;1544;48.834;9.194;2023-07-13T01:48:52;20.00;33.80
3067;DHT22;1544;48.834;9.194;2023-07-13T01:51:28;20.00;33.80
3067;DHT22;1544;48.834;9.194;2023-07-13T01:54:04;20.00;33.90
3067;DHT22;1544;48.834;9.194;2023-07-13T01:56:40;20.00;33.80
3067;DHT22;1544;48.834;9.194;2023-07-13T01:59:17;19.90;33.80
3067;DHT22;1544;48.834;9.194;2023-07-13T02:01:53;19.90;33.90
3067;DHT22;1544;48.834;9.194;2023-07-13T02:04:30;20.00;34.20
3067;DHT22;1544;48.834;9.194;2023-07-13T02:07:06;19.90;34.30
3067;DHT22;1544;48.834;9.194;2023-07-13T02:09:43;19.90;34.50
3067;DHT22;1544;48.834;9.194;2023-07-13T02:12:20;19.80;34.60
3067;DHT22;1544;48.834;9.194;2023-07-13T02:14:56;19.80;34.70
3067;DHT22;1544;48.834;9.194;2023-07-13T02:17:32;19.80;34.90
3067;DHT22;1544;48.834;9.194;2023-07-13T02:20:09;19.70;35.00
3067;DHT22;1544;48.834;9.194;2023-07-13T02:22:45;19.70;35.20
3067;DHT22;1544;48.834;9.194;2023-07-13T02:25:21;19.70;35.10
3067;DHT22;1544;48.834;9.194;2023-07-13T02:27:57;19.60;35.20
3067;DHT22;1544;48.834;9.194;2023-07-13T02:30:34;19.60;35.20
3067;DHT22;1544;48.834;9.194;2023-07-13T02:33:11;19.50;35.20
3067;DHT22;1544;48.834;9.194;2023-07-13T02:35:47;19.50;35.30
3067;DHT22;1544;48.834;9.194;2023-07-13T02:38:23;19.50;35.30
3067;DHT22;1544;48.834;9.194;2023-07-13T02:41:00;19.40;35.10
3067;DHT22;1544;48.834;9.194;2023-07-13T02:43:37;19.40;35.30
3067;DHT22;1544;48.834;9.194;2023-07-13T02:46:14;19.40;35.40
3067;DHT22;1544;48.834;9.194;2023-07-13T02:48:50;19.30;35.40
3067;DHT22;1544;48.834;9.194;2023-07-13T02:51:29;19.30;35.70
3067;DHT22;1544;48.834;9.194;2023-07-13T02:54:05;19.20;35.80
3067;DHT22;1544;48.834;9.194;2023-07-13T02:56:41;19.20;35.90
3067;DHT22;1544;48.834;9.194;2023-07-13T02:59:19;19.20;35.80
3067;DHT22;1544;48.834;9.194;2023-07-13T03:01:55;19.20;35.50
3067;DHT22;1544;48.834;9.194;2023-07-13T03:04:31;19.20;35.50
3067;DHT22;1544;48.834;9.194;2023-07-13T03:07:07;19.10;35.50
3067;DHT22;1544;48.834;9.194;2023-07-13T03:09:45;19.10;35.70
3067;DHT22;1544;48.834;9.194;2023-07-13T03:12:22;19.00;35.70
3067;DHT22;1544;48.834;9.194;2023-07-13T03:14:59;19.00;35.80
3067;DHT22;1544;48.834;9.194;2023-07-13T03:17:36;19.00;36.00
3067;DHT22;1544;48.834;9.194;2023-07-13T03:20:12;19.00;36.20
3067;DHT22;1544;48.834;9.194;2023-07-13T03:22:49;19.00;36.20
3067;DHT22;1544;48.834;9.194;2023-07-13T03:25:26;19.00;36.20
3067;DHT22;1544;48.834;9.194;2023-07-13T03:28:03;18.90;36.00
3067;DHT22;1544;48.834;9.194;2023-07-13T03:30:42;19.00;36.30
3067;DHT22;1544;48.834;9.194;2023-07-13T03:33:18;19.00;36.30
3067;DHT22;1544;48.834;9.194;2023-07-13T03:35:54;19.00;36.30
3067;DHT22;1544;48.834;9.194;2023-07-13T03:38:30;19.10;36.40
3067;DHT22;1544;48.834;9.194;2023-07-13T03:41:07;19.10;36.40
3067;DHT22;1544;48.834;9.194;2023-07-13T03:43:43;19.10;36.30
3067;DHT22;1544;48.834;9.194;2023-07-13T03:46:20;19.20;36.20
3067;DHT22;1544;48.834;9.194;2023-07-13T03:48:57;19.20;35.80
3067;DHT22;1544;48.834;9.194;2023-07-13T03:51:33;19.30;35.70
3067;DHT22;1544;48.834;9.194;2023-07-13T03:54:09;19.40;35.60
3067;DHT22;1544;48.834;9.194;2023-07-13T03:56:45;19.40;35.40
3067;DHT22;1544;48.834;9.194;2023-07-13T03:59:21;19.40;35.20
3067;DHT22;1544;48.834;9.194;2023-07-13T04:01:58;19.40;35.20
3067;DHT22;1544;48.834;9.194;2023-07-13T04:04:34;19.50;35.30
3067;DHT22;1544;48.834;9.194;2023-07-13T04:07:10;19.50;35.20
3067;DHT22;1544;48.834;9.194;2023-07-13T04:09:48;19.50;35.30
3067;DHT22;1544;48.834;9.194;2023-07-13T04:12:24;19.50;35.30
3067;DHT22;1544;48.834;9.194;2023-07-13T04:15:00;19.60;35.30
3067;DHT22;1544;48.834;9.194;2023-07-13T04:17:36;19.60;35.10
3067;DHT22;1544;48.834;9.194;2023-07-13T04:20:12;19.60;35.00
3067;DHT22;1544;48.834;9.194;2023-07-13T04:22:48;19.60;35.10
3067;DHT22;1544;48.834;9.194;2023-07-13T04:25:24;19.70;35.20
3067;DHT22;1544;48.834;9.194;2023-07-13T04:28:00;19.60;35.20
3067;DHT22;1544;48.834;9.194;2023-07-13T04:30:38;19.70;35.10
3067;DHT22;1544;48.834;9.194;2023-07-13T04:33:14;19.70;35.00
3067;DHT22;1544;48.834;9.194;2023-07-13T04:35:54;19.80;35.00
3067;DHT22;1544;48.834;9.194;2023-07-13T04:38:32;19.80;35.10
3067;DHT22;1544;48.834;9.194;2023-07-13T04:41:09;19.80;34.90
3067;DHT22;1544;48.834;9.194;2023-07-13T04:43:45;19.80;34.80
3067;DHT22;1544;48.834;9.194;2023-07-13T04:46:21;19.80;34.80
3067;DHT22;1544;48.834;9.194;2023-07-13T04:48:57;19.70;34.90
3067;DHT22;1544;48.834;9.194;2023-07-13T04:51:34;19.70;34.70
3067;DHT22;1544;48.834;9.194;2023-07-13T04:54:10;19.60;34.80
3067;DHT22;1544;48.834;9.194;2023-07-13T04:56:46;19.60;35.00
3067;DHT22;1544;48.834;9.194;2023-07-13T04:59:22;20.10;35.50
3067;DHT22;1544;48.834;9.194;2023-07-13T05:01:59;19.60;35.20
3067;DHT22;1544;48.834;9.194;2023-07-13T05:04:35;19.60;35.30
3067;DHT22;1544;48.834;9.194;2023-07-13T05:07:11;19.60;35.40
3067;DHT22;1544;48.834;9.194;2023-07-13T05:09:47;19.60;35.40
3067;DHT22;1544;48.834;9.194;2023-07-13T05:12:23;19.60;35.10
3067;DHT22;1544;48.834;9.194;2023-07-13T05:15:01;19.70;35.20
3067;DHT22;1544;48.834;9.194;2023-07-13T05:17:37;19.70;35.20
3067;DHT22;1544;48.834;9.194;2023-07-13T05:20:15;19.80;35.30
3067;DHT22;1544;48.834;9.194;2023-07-13T05:22:52;19.90;35.40
3067;DHT22;1544;48.834;9.194;2023-07-13T05:25:28;19.90;35.30
3067;DHT22;1544;48.834;9.194;2023-07-13T05:28:04;19.90;35.30
3067;DHT22;1544;48.834;9.194;2023-07-13T05:30:45;20.10;35.20
3067;DHT22;1544;48.834;9.194;2023-07-13T05:33:23;20.10;34.40
3067;DHT22;1544;48.834;9.194;2023-07-13T05:35:59;20.20;34.10
3067;DHT22;1544;48.834;9.194;2023-07-13T05:38:36;20.20;33.90
3067;DHT22;1544;48.834;9.194;2023-07-13T05:41:12;20.20;33.70
3067;DHT22;1544;48.834;9.194;2023-07-13T05:43:48;21.20;34.30
3067;DHT22;1544;48.834;9.194;2023-07-13T05:46:25;20.30;33.60
3067;DHT22;1544;48.834;9.194;2023-07-13T05:49:01;20.30;33.50
3067;DHT22;1544;48.834;9.194;2023-07-13T05:51:37;20.40;33.50
3067;DHT22;1544;48.834;9.194;2023-07-13T05:54:13;20.30;33.40
3067;DHT22;1544;48.834;9.194;2023-07-13T05:56:49;20.30;33.60
3067;DHT22;1544;48.834;9.194;2023-07-13T05:59:25;20.30;33.70
3067;DHT22;1544;48.834;9.194;2023-07-13T06:02:01;20.40;33.70
3067;DHT22;1544;48.834;9.194;2023-07-13T06:04:37;20.40;33.70
3067;DHT22;1544;48.834;9.194;2023-07-13T06:07:14;20.50;33.50
3067;DHT22;1544;48.834;9.194;2023-07-13T06:09:50;20.60;33.20
3067;DHT22;1544;48.834;9.194;2023-07-13T06:12:27;20.70;32.80
3067;DHT22;1544;48.834;9.194;2023-07-13T06:15:03;20.70;32.80
3067;DHT22;1544;48.834;9.194;2023-07-13T06:17:40;20.70;32.80
3067;DHT22;1544;48.834;9.194;2023-07-13T06:20:16;20.70;32.90
3067;DHT22;1544;48.834;9.194;2023-07-13T06:22:52;20.70;32.70
3067;DHT22;1544;48.834;9.194;2023-07-13T06:25:28;20.80;32.60
3067;DHT22;1544;48.834;9.194;2023-07-13T06:28:04;20.80;32.70
3067;DHT22;1544;48.834;9.194;2023-07-13T06:30:40;20.80;32.60
3067;DHT22;1544;48.834;9.194;2023-07-13T06:33:16;20.70;31.90
3067;DHT22;1544;48.834;9.194;2023-07-13T06:35:52;20.70;31.70
3067;DHT22;1544;48.834;9.194;2023-07-13T06:38:30;20.60;31.70
3067;DHT22;1544;48.834;9.194;2023-07-13T06:41:07;20.60;31.60
3067;DHT22;1544;48.834;9.194;2023-07-13T06:43:45;20.60;31.00
3067;DHT22;1544;48.834;9.194;2023-07-13T06:46:22;20.70;31.30
3067;DHT22;1544;48.834;9.194;2023-07-13T06:48:58;20.80;31.10
3067;DHT22;1544;48.834;9.194;2023-07-13T06:51:35;20.90;31.50
3067;DHT22;1544;48.834;9.194;2023-07-13T06:54:11;21.00;31.60
3067;DHT22;1544;48.834;9.194;2023-07-13T06:56:47;21.10;31.80
3067;DHT22;1544;48.834;9.194;2023-07-13T06:59:23;21.20;31.90
3067;DHT22;1544;48.834;9.194;2023-07-13T07:01:59;21.20;30.90
3067;DHT22;1544;48.834;9.194;2023-07-13T07:04:35;21.30;31.10
3067;DHT22;1544;48.834;9.194;2023-07-13T07:07:11;21.40;31.30
3067;DHT22;1544;48.834;9.194;2023-07-13T07:09:47;21.30;31.20
3067;DHT22;1544;48.834;9.194;2023-07-13T07:12:23;21.40;31.20
3067;DHT22;1544;48.834;9.194;2023-07-13T07:14:59;21.40;31.40
3067;DHT22;1544;48.834;9.194;2023-07-13T07:17:35;21.50;31.10
3067;DHT22;1544;48.834;9.194;2023-07-13T07:20:12;21.60;31.10
3067;DHT22;1544;48.834;9.194;2023-07-13T07:22:48;21.60;30.70
3067;DHT22;1544;48.834;9.194;2023-07-13T07:25:24;21.60;30.20
3067;DHT22;1544;48.834;9.194;2023-07-13T07:28:00;21.60;30.10
3067;DHT22;1544;48.834;9.194;2023-07-13T07:30:42;21.70;30.40
3067;DHT22;1544;48.834;9.194;2023-07-13T07:33:22;21.70;30.60
3067;DHT22;1544;48.834;9.194;2023-07-13T07:35:58;21.80;29.90
3067;DHT22;1544;48.834;9.194;2023-07-13T07:38:37;21.80;29.60
3067;DHT22;1544;48.834;9.194;2023-07-13T07:41:13;21.80;29.60
3067;DHT22;1544;48.834;9.194;2023-07-13T07:43:52;21.80;29.60
3067;DHT22;1544;48.834;9.194;2023-07-13T07:46:29;21.80;29.40
3067;DHT22;1544;48.834;9.194;2023-07-13T07:49:06;21.90;29.50
3067;DHT22;1544;48.834;9.194;2023-07-13T07:51:42;21.90;29.70
3067;DHT22;1544;48.834;9.194;2023-07-13T07:54:18;23.00;29.90
3067;DHT22;1544;48.834;9.194;2023-07-13T07:57:14;22.00;28.90
3067;DHT22;1544;48.834;9.194;2023-07-13T08:00:10;22.00;29.20
3067;DHT22;1544;48.834;9.194;2023-07-13T08:02:49;22.00;29.60
3067;DHT22;1544;48.834;9.194;2023-07-13T08:05:29;22.00;29.70
3067;DHT22;1544;48.834;9.194;2023-07-13T08:08:08;22.10;29.70
3067;DHT22;1544;48.834;9.194;2023-07-13T08:10:44;22.10;29.40
3067;DHT22;1544;48.834;9.194;2023-07-13T08:13:20;22.10;28.70
3067;DHT22;1544;48.834;9.194;2023-07-13T08:15:56;22.10;28.20
3067;DHT22;1544;48.834;9.194;2023-07-13T08:18:32;22.20;28.50
3067;DHT22;1544;48.834;9.194;2023-07-13T08:21:09;22.20;28.20
3067;DHT22;1544;48.834;9.194;2023-07-13T08:23:45;22.30;28.60
3067;DHT22;1544;48.834;9.194;2023-07-13T08:26:21;22.30;28.70
3067;DHT22;1544;48.834;9.194;2023-07-13T08:28:57;22.30;28.50
3067;DHT22;1544;48.834;9.194;2023-07-13T08:31:34;22.50;28.00
3067;DHT22;1544;48.834;9.194;2023-07-13T08:34:10;22.50;28.10
3067;DHT22;1544;48.834;9.194;2023-07-13T08:36:46;22.50;28.40
3067;DHT22;1544;48.834;9.194;2023-07-13T08:39:22;22.60;28.50
3067;DHT22;1544;48.834;9.194;2023-07-13T08:42:11;22.60;28.50
3067;DHT22;1544;48.834;9.194;2023-07-13T08:45:03;22.70;28.40
3067;DHT22;1544;48.834;9.194;2023-07-13T08:47:55;22.70;28.70
3067;DHT22;1544;48.834;9.194;2023-07-13T08:53:52;22.90;28.60
3067;DHT22;1544;48.834;9.194;2023-07-13T08:56:32;22.90;28.20
3067;DHT22;1544;48.834;9.194;2023-07-13T08:59:16;23.00;28.10
3067;DHT22;1544;48.834;9.194;2023-07-13T09:05:38;23.00;28.20
3067;DHT22;1544;48.834;9.194;2023-07-13T09:08:43;23.20;28.20
3067;DHT22;1544;48.834;9.194;2023-07-13T09:12:17;23.30;28.10
3067;DHT22;1544;48.834;9.194;2023-07-13T09:14:56;23.40;27.80
3067;DHT22;1544;48.834;9.194;2023-07-13T09:17:43;23.50;27.90
3067;DHT22;1544;48.834;9.194;2023-07-13T09:20:57;23.60;28.00
3067;DHT22;1544;48.834;9.194;2023-07-13T09:23:37;23.80;28.20
3067;DHT22;1544;48.834;9.194;2023-07-13T09:26:15;24.00;28.30
3067;DHT22;1544;48.834;9.194;2023-07-13T09:28:59;24.20;28.30
3067;DHT22;1544;48.834;9.194;2023-07-13T09:31:49;24.30;28.10
3067;DHT22;1544;48.834;9.194;2023-07-13T09:34:28;24.40;28.10
3067;DHT22;1544;48.834;9.194;2023-07-13T09:37:06;24.60;28.00
3067;DHT22;1544;48.834;9.194;2023-07-13T09:39:42;24.70;27.80
3067;DHT22;1544;48.834;9.194;2023-07-13T09:42:20;24.70;27.80
3067;DHT22;1544;48.834;9.194;2023-07-13T09:45:00;24.70;27.70
3067;DHT22;1544;48.834;9.194;2023-07-13T09:47:41;24.80;27.60
3067;DHT22;1544;48.834;9.194;2023-07-13T09:50:17;24.80;27.80
3067;DHT22;1544;48.834;9.194;2023-07-13T09:52:53;24.70;27.30
3067;DHT22;1544;48.834;9.194;2023-07-13T09:55:34;24.70;27.60
3067;DHT22;1544;48.834;9.194;2023-07-13T09:58:24;24.80;27.50
3067;DHT22;1544;48.834;9.194;2023-07-13T10:01:07;24.90;27.40
3067;DHT22;1544;48.834;9.194;2023-07-13T10:03:54;25.00;27.40
3067;DHT22;1544;48.834;9.194;2023-07-13T10:06:30;25.10;27.20
3067;DHT22;1544;48.834;9.194;2023-07-13T10:09:07;25.20;27.40
3067;DHT22;1544;48.834;9.194;2023-07-13T10:11:43;25.30;27.10
3067;DHT22;1544;48.834;9.194;2023-07-13T10:14:21;25.50;27.30
3067;DHT22;1544;48.834;9.194;2023-07-13T10:17:03;25.60;27.10
3067;DHT22;1544;48.834;9.194;2023-07-13T10:19:42;25.70;27.10
3067;DHT22;1544;48.834;9.194;2023-07-13T10:22:49;26.00;26.90
3067;DHT22;1544;48.834;9.194;2023-07-13T10:25:38;26.10;27.10
3067;DHT22;1544;48.834;9.194;2023-07-13T10:28:31;26.30;27.00
3067;DHT22;1544;48.834;9.194;2023-07-13T10:31:13;26.30;26.80
3067;DHT22;1544;48.834;9.194;2023-07-13T10:33:51;26.40;26.80
3067;DHT22;1544;48.834;9.194;2023-07-13T10:36:42;26.30;26.50
3067;DHT22;1544;48.834;9.194;2023-07-13T10:39:22;26.40;26.40
3067;DHT22;1544;48.834;9.194;2023-07-13T10:42:05;26.40;26.50
3067;DHT22;1544;48.834;9.194;2023-07-13T10:44:42;26.50;26.70
3067;DHT22;1544;48.834;9.194;2023-07-13T10:47:18;26.70;26.80
3067;DHT22;1544;48.834;9.194;2023-07-13T10:49:57;26.90;26.40
3067;DHT22;1544;48.834;9.194;2023-07-13T10:52:47;27.10;26.90
3067;DHT22;1544;48.834;9.194;2023-07-13T10:55:40;27.30;26.40
3067;DHT22;1544;48.834;9.194;2023-07-13T10:58:36;27.50;26.50
3067;DHT22;1544;48.834;9.194;2023-07-13T11:01:18;27.40;26.50
3067;DHT22;1544;48.834;9.194;2023-07-13T11:03:58;27.40;27.00
3067;DHT22;1544;48.834;9.194;2023-07-13T11:06:41;27.50;27.20
3067;DHT22;1544;48.834;9.194;2023-07-13T11:09:40;27.60;26.30
3067;DHT22;1544;48.834;9.194;2023-07-13T11:12:50;27.50;26.00
3067;DHT22;1544;48.834;9.194;2023-07-13T11:15:43;27.40;26.10
3067;DHT22;1544;48.834;9.194;2023-07-13T11:18:23;27.30;26.20
3067;DHT22;1544;48.834;9.194;2023-07-13T11:24:15;27.60;26.40
3067;DHT22;1544;48.834;9.194;2023-07-13T11:26:52;27.70;26.00
3067;DHT22;1544;48.834;9.194;2023-07-13T11:32:40;27.40;25.90
3067;DHT22;1544;48.834;9.194;2023-07-13T11:35:23;27.40;26.20
3067;DHT22;1544;48.834;9.194;2023-07-13T11:38:03;27.40;25.70
3067;DHT22;1544;48.834;9.194;2023-07-13T11:40:50;27.40;25.70
3067;DHT22;1544;48.834;9.194;2023-07-13T11:43:31;27.30;25.70
3067;DHT22;1544;48.834;9.194;2023-07-13T11:46:19;27.40;25.80
3067;DHT22;1544;48.834;9.194;2023-07-13T11:48:57;27.50;25.60
3067;DHT22;1544;48.834;9.194;2023-07-13T11:51:35;27.50;25.60
3067;DHT22;1544;48.834;9.194;2023-07-13T11:54:33;27.70;25.60
3067;DHT22;1544;48.834;9.194;2023-07-13T12:00:11;28.10;25.70
3067;DHT22;1544;48.834;9.194;2023-07-13T12:02:53;28.30;25.50
3067;DHT22;1544;48.834;9.194;2023-07-13T12:05:31;28.60;25.50
3067;DHT22;1544;48.834;9.194;2023-07-13T12:08:10;29.10;26.00
3067;DHT22;1544;48.834;9.194;2023-07-13T12:11:16;29.40;25.60
3067;DHT22;1544;48.834;9.194;2023-07-13T12:13:53;29.40;24.90
3067;DHT22;1544;48.834;9.194;2023-07-13T12:16:30;29.30;24.80
3067;DHT22;1544;48.834;9.194;2023-07-13T12:19:24;29.10;24.80
3067;DHT22;1544;48.834;9.194;2023-07-13T12:22:02;28.80;24.80
3067;DHT22;1544;48.834;9.194;2023-07-13T12:24:38;28.80;24.80
3067;DHT22;1544;48.834;9.194;2023-07-13T12:27:23;28.70;25.00
3067;DHT22;1544;48.834;9.194;2023-07-13T12:30:05;28.60;24.50
3067;DHT22;1544;48.834;9.194;2023-07-13T12:33:11;28.50;24.70
3067;DHT22;1544;48.834;9.194;2023-07-13T12:35:50;28.50;24.80
3067;DHT22;1544;48.834;9.194;2023-07-13T12:38:29;28.70;25.30
3067;DHT22;1544;48.834;9.194;2023-07-13T12:41:08;28.80;24.60
3067;DHT22;1544;48.834;9.194;2023-07-13T12:43:45;28.80;24.70
3067;DHT22;1544;48.834;9.194;2023-07-13T12:46:24;29.10;24.70
3067;DHT22;1544;48.834;9.194;2023-07-13T12:49:07;29.20;24.60
3067;DHT22;1544;48.834;9.194;2023-07-13T12:51:58;29.00;24.10
3067;DHT22;1544;48.834;9.194;2023-07-13T12:54:39;28.90;24.60
3067;DHT22;1544;48.834;9.194;2023-07-13T12:57:27;28.80;24.60
3067;DHT22;1544;48.834;9.194;2023-07-13T13:00:03;28.70;24.40
3067;DHT22;1544;48.834;9.194;2023-07-13T13:02:40;28.70;24.40
3067;DHT22;1544;48.834;9.194;2023-07-13T13:05:17;28.80;24.40
3067;DHT22;1544;48.834;9.194;2023-07-13T13:07:53;29.10;24.30
3067;DHT22;1544;48.834;9.194;2023-07-13T13:10:29;29.30;24.20
3067;DHT22;1544;48.834;9.194;2023-07-13T13:13:05;29.50;24.00
3067;DHT22;1544;48.834;9.194;2023-07-13T13:15:41;29.50;23.80
3067;DHT22;1544;48.834;9.194;2023-07-13T13:18:19;29.50;23.90
3067;DHT22;1544;48.834;9.194;2023-07-13T13:20:57;29.60;24.10
3067;DHT22;1544;48.834;9.194;2023-07-13T13:23:33;29.90;24.00
3067;DHT22;1544;48.834;9.194;2023-07-13T13:26:14;30.20;23.80
3067;DHT22;1544;48.834;9.194;2023-07-13T13:28:54;30.70;23.90
3067;DHT22;1544;48.834;9.194;2023-07-13T13:31:30;30.90;23.90
3067;DHT22;1544;48.834;9.194;2023-07-13T13:34:11;30.90;23.60
3067;DHT22;1544;48.834;9.194;2023-07-13T13:36:50;31.00;23.90
3067;DHT22;1544;48.834;9.194;2023-07-13T13:39:34;31.20;23.70
3067;DHT22;1544;48.834;9.194;2023-07-13T13:42:13;31.40;23.90
3067;DHT22;1544;48.834;9.194;2023-07-13T13:44:49;31.60;23.30
3067;DHT22;1544;48.834;9.194;2023-07-13T13:47:30;31.50;23.30
3067;DHT22;1544;48.834;9.194;2023-07-13T13:52:56;31.50;23.40
3067;DHT22;1544;48.834;9.194;2023-07-13T13:55:32;31.40;23.30
3067;DHT22;1544;48.834;9.194;2023-07-13T13:58:09;31.60;23.60
3067;DHT22;1544;48.834;9.194;2023-07-13T14:00:47;31.70;23.30
3067;DHT22;1544;48.834;9.194;2023-07-13T14:03:24;31.70;23.10
3067;DHT22;1544;48.834;9.194;2023-07-13T14:06:00;31.60;23.00
3067;DHT22;1544;48.834;9.194;2023-07-13T14:08:36;31.40;23.00
3067;DHT22;1544;48.834;9.194;2023-07-13T14:11:15;31.40;23.20
3067;DHT22;1544;48.834;9.194;2023-07-13T14:13:58;31.20;23.10
3067;DHT22;1544;48.834;9.194;2023-07-13T14:16:35;31.00;23.30
3067;DHT22;1544;48.834;9.194;2023-07-13T14:19:12;30.90;23.30
3067;DHT22;1544;48.834;9.194;2023-07-13T14:21:49;30.80;23.30
3067;DHT22;1544;48.834;9.194;2023-07-13T14:24:28;30.70;23.40
3067;DHT22;1544;48.834;9.194;2023-07-13T14:27:04;30.80;23.20
3067;DHT22;1544;48.834;9.194;2023-07-13T14:29:41;31.00;23.50
3067;DHT22;1544;48.834;9.194;2023-07-13T14:32:17;31.20;23.10
3067;DHT22;1544;48.834;9.194;2023-07-13T14:34:53;31.30;23.30
3067;DHT22;1544;48.834;9.194;2023-07-13T14:37:29;31.60;23.40
3067;DHT22;1544;48.834;9.194;2023-07-13T14:42:48;32.20;23.20
3067;DHT22;1544;48.834;9.194;2023-07-13T14:45:25;32.30;22.70
3067;DHT22;1544;48.834;9.194;2023-07-13T14:48:02;32.20;22.90
3067;DHT22;1544;48.834;9.194;2023-07-13T14:50:39;32.30;23.10
3067;DHT22;1544;48.834;9.194;2023-07-13T14:53:15;32.40;23.20
3067;DHT22;1544;48.834;9.194;2023-07-13T14:55:51;32.50;23.20
3067;DHT22;1544;48.834;9.194;2023-07-13T14:58:28;32.50;23.00
3067;DHT22;1544;48.834;9.194;2023-07-13T15:01:13;32.50;22.90
3067;DHT22;1544;48.834;9.194;2023-07-13T15:03:52;32.50;23.00
3067;DHT22;1544;48.834;9.194;2023-07-13T15:06:29;32.50;22.90
3067;DHT22;1544;48.834;9.194;2023-07-13T15:09:11;32.40;23.10
3067;DHT22;1544;48.834;9.194;2023-07-13T15:11:47;32.30;23.00
3067;DHT22;1544;48.834;9.194;2023-07-13T15:14:23;32.20;23.00
3067;DHT22;1544;48.834;9.194;2023-07-13T15:17:01;32.30;23.20
3067;DHT22;1544;48.834;9.194;2023-07-13T15:19:37;32.20;23.10
3067;DHT22;1544;48.834;9.194;2023-07-13T15:22:13;32.10;23.10
3067;DHT22;1544;48.834;9.194;2023-07-13T15:24:49;32.10;23.20
3067;DHT22;1544;48.834;9.194;2023-07-13T15:27:25;32.00;23.20
3067;DHT22;1544;48.834;9.194;2023-07-13T15:30:02;32.00;23.20
3067;DHT22;1544;48.834;9.194;2023-07-13T15:32:41;32.10;23.40
3067;DHT22;1544;48.834;9.194;2023-07-13T15:35:21;32.30;23.10
3067;DHT22;1544;48.834;9.194;2023-07-13T15:38:00;32.50;23.20
3067;DHT22;1544;48.834;9.194;2023-07-13T15:40:35;32.90;23.00
3067;DHT22;1544;48.834;9.194;2023-07-13T15:43:12;32.90;22.80
3067;DHT22;1544;48.834;9.194;2023-07-13T15:45:50;32.80;22.80
3067;DHT22;1544;48.834;9.194;2023-07-13T15:48:27;32.80;23.10
3067;DHT22;1544;48.834;9.194;2023-07-13T15:51:05;32.80;23.00
3067;DHT22;1544;48.834;9.194;2023-07-13T15:53:45;33.00;22.80
3067;DHT22;1544;48.834;9.194;2023-07-13T15:56:28;33.50;23.00
3067;DHT22;1544;48.834;9.194;2023-07-13T15:59:04;34.00;22.60
3067;DHT22;1544;48.834;9.194;2023-07-13T16:01:40;34.60;22.60
3067;DHT22;1544;48.834;9.194;2023-07-13T16:04:17;35.20;22.40
3067;DHT22;1544;48.834;9.194;2023-07-13T16:06:55;35.70;22.30
3067;DHT22;1544;48.834;9.194;2023-07-13T16:09:32;35.90;22.30
3067;DHT22;1544;48.834;9.194;2023-07-13T16:12:12;36.20;22.20
3067;DHT22;1544;48.834;9.194;2023-07-13T16:14:48;36.40;22.10
3067;DHT22;1544;48.834;9.194;2023-07-13T16:17:25;36.70;22.10
3067;DHT22;1544;48.834;9.194;2023-07-13T16:20:01;37.00;21.90
3067;DHT22;1544;48.834;9.194;2023-07-13T16:22:37;37.00;21.70
3067;DHT22;1544;48.834;9.194;2023-07-13T16:25:16;37.20;22.30
3067;DHT22;1544;48.834;9.194;2023-07-13T16:27:54;37.70;21.80
3067;DHT22;1544;48.834;9.194;2023-07-13T16:30:36;37.70;21.70
3067;DHT22;1544;48.834;9.194;2023-07-13T16:33:12;37.30;21.60
3067;DHT22;1544;48.834;9.194;2023-07-13T16:35:48;37.10;21.50
3067;DHT22;1544;48.834;9.194;2023-07-13T16:38:24;37.20;21.50
3067;DHT22;1544;48.834;9.194;2023-07-13T16:41:00;37.30;21.70
3067;DHT22;1544;48.834;9.194;2023-07-13T16:43:36;37.00;21.50
3067;DHT22;1544;48.834;9.194;2023-07-13T16:46:21;36.70;21.60
3067;DHT22;1544;48.834;9.194;2023-07-13T16:48:58;36.60;21.60
3067;DHT22;1544;48.834;9.194;2023-07-13T16:51:37;36.00;21.70
3067;DHT22;1544;48.834;9.194;2023-07-13T16:54:13;35.50;21.90
3067;DHT22;1544;48.834;9.194;2023-07-13T16:56:53;35.30;22.30
3067;DHT22;1544;48.834;9.194;2023-07-13T16:59:34;35.20;21.80
3067;DHT22;1544;48.834;9.194;2023-07-13T17:05:12;34.30;21.90
3067;DHT22;1544;48.834;9.194;2023-07-13T17:07:49;33.30;22.10
3067;DHT22;1544;48.834;9.194;2023-07-13T17:10:26;32.90;22.50
3067;DHT22;1544;48.834;9.194;2023-07-13T17:13:02;32.60;22.70
3067;DHT22;1544;48.834;9.194;2023-07-13T17:15:41;32.60;23.20
3067;DHT22;1544;48.834;9.194;2023-07-13T17:18:17;32.80;22.80
3067;DHT22;1544;48.834;9.194;2023-07-13T17:20:54;32.60;22.70
3067;DHT22;1544;48.834;9.194;2023-07-13T17:23:30;32.50;22.80
3067;DHT22;1544;48.834;9.194;2023-07-13T17:26:10;32.30;22.80
3067;DHT22;1544;48.834;9.194;2023-07-13T17:28:46;32.00;22.90
3067;DHT22;1544;48.834;9.194;2023-07-13T17:31:22;31.60;23.00
3067;DHT22;1544;48.834;9.194;2023-07-13T17:33:58;31.40;23.00
3067;DHT22;1544;48.834;9.194;2023-07-13T17:36:34;31.20;23.20
3067;DHT22;1544;48.834;9.194;2023-07-13T17:39:20;31.10;23.30
3067;DHT22;1544;48.834;9.194;2023-07-13T17:41:57;31.00;23.50
3067;DHT22;1544;48.834;9.194;2023-07-13T17:44:33;30.80;23.70